Current Weather Conditions: station 44040

sailwx.info

Wind from 010 at 3 knots gusting 7

Wave height 0.1 meters (0 feet)

Air temperature -1.4° C
Dewpoint -7.9° C

Last reported at 2019-Dec-08 09:45 UTC.
Time now 2019-Dec-08 10:43 UTC

Location: N 41°00' W 073°36'.
View on Google Maps.

See reports from other nearby stations

  
Tides and Currents Weather Stations Pressure Air Temp Water Temp Dewpoint Dewpoint Depression Visibility Wind Speed Wind Dir Waves Ship Positions
date/time (UTC)wind fromknots sea level pressurealtimeterstation pressurevisibilityair tempwater tempwave heightnotes
2019-Dec-08 09:45 010 3 gusting 7 -1.4 0.1
2019-Dec-08 08:50 040 5 gusting 7 -1.3 0.2
2019-Dec-08 08:45 030 5 gusting 7 -1.3 0.2
2019-Dec-08 07:50 010 3 gusting 5 -1.2 0.2
2019-Dec-08 07:45 040 5 gusting 7 -1.0 0.2
2019-Dec-08 06:50 040 5 gusting 9 -0.9 0.2
2019-Dec-08 06:45 050 7 gusting 11 -1.0 0.2
2019-Dec-08 05:50 050 7 gusting 11 -0.6 0.2
2019-Dec-08 05:45 050 9 gusting 13 -0.4 0.1
2019-Dec-08 05:20 040 5 gusting 9 -0.2
2019-Dec-08 04:45 010 7 gusting 11 -0.0
2019-Dec-08 04:20 360 9 gusting 11 0.2 0.1
2019-Dec-08 03:45 340 9 gusting 13 0.6
2019-Dec-08 03:20 350 9 gusting 13 0.7 0.1
2019-Dec-08 02:45 330 9 gusting 11 0.9 0.1
2019-Dec-08 02:20 330 11 gusting 13 0.9 0.1
2019-Dec-08 01:45 330 11 gusting 15 1.2 0.1
2019-Dec-08 00:50 330 11 gusting 17 1.4 0.2
2019-Dec-08 00:45 330 11 gusting 17 1.6 0.2
2019-Dec-08 00:20 320 11 gusting 15 1.7 0.2
2019-Dec-07 23:45 310 13 gusting 19 2.1 0.2
2019-Dec-07 23:20 310 15 gusting 19 2.3 0.2
2019-Dec-07 22:45 290 11 gusting 17 2.5 0.2
2019-Dec-07 21:50 300 11 gusting 15 2.5 0.3
2019-Dec-07 21:45 310 13 gusting 19 2.7 0.3
2019-Dec-07 21:20 310 15 gusting 21 2.9 0.2
2019-Dec-07 20:45 300 15 gusting 21 3.2 0.3
2019-Dec-07 20:20 310 15 gusting 19 3.3 0.2
2019-Dec-07 19:45 320 13 gusting 17 3.1 0.2
2019-Dec-07 18:50 310 11 gusting 17 2.9 0.3
2019-Dec-07 18:45 300 15 gusting 21 2.5 0.3
2019-Dec-07 18:20 310 13 gusting 19 2.5 0.2
2019-Dec-07 17:45 320 11 gusting 15 3.0 0.2
2019-Dec-07 17:20 310 11 gusting 17 2.8 0.3
2019-Dec-07 16:45 310 13 gusting 19 2.7 0.2
2019-Dec-07 16:20 310 13 gusting 17 2.8 0.2
2019-Dec-07 15:45 330 11 gusting 17 2.5 0.3
2019-Dec-07 15:20 320 13 gusting 17 2.4 0.3
2019-Dec-07 14:45 320 15 gusting 21 2.1 0.3
2019-Dec-07 14:20 310 13 gusting 19 2.0 0.2
2019-Dec-07 13:45 310 13 gusting 19 1.3 0.2
2019-Dec-07 13:20 310 13 gusting 19 1.3 0.2
2019-Dec-07 12:45 300 11 gusting 17 1.4 0.1
2019-Dec-07 12:20 300 11 gusting 15 1.3 0.1
2019-Dec-07 11:45 290 11 gusting 17 1.6 0.1
2019-Dec-07 11:20 300 11 gusting 15 1.7 0.1
2019-Dec-07 02:45 320 19 gusting 29 6.3 0.5
2019-Dec-07 02:20 320 19 gusting 29 6.3 0.5
2019-Dec-07 02:00 300 19 gusting 27 7.0 0.8
2019-Dec-07 01:50 310 17 gusting 25 6.8 0.5
2019-Dec-07 01:00 300 21 gusting 29 8.5 0.4
2019-Dec-07 00:50 300 21 gusting 29 8.5 0.6
2019-Dec-07 00:00 260 17 gusting 23 9.3 0.4
2019-Dec-06 23:50 270 17 gusting 25 9.2 0.4
2019-Dec-06 23:00 240 13 gusting 19 8.9 0.5
2019-Dec-06 22:50 240 13 gusting 19 8.9 0.4
2019-Dec-06 22:00 220 17 gusting 23 9.2 0.4
2019-Dec-06 21:50 230 17 gusting 23 9.1 0.5
2019-Dec-06 20:50 210 13 gusting 19 9.0 0.2
2019-Dec-06 20:45 210 11 gusting 15 8.6 0.2
2019-Dec-06 20:00 200 11 gusting 15 8.1 0.2
2019-Dec-06 19:50 200 11 gusting 15 8.1 0.2
2019-Dec-06 19:00 220 11 gusting 15 7.1 0.3
2019-Dec-06 18:50 210 11 gusting 15 7.1 0.3
2019-Dec-06 17:50 210 13 gusting 21 6.9 0.4
2019-Dec-06 17:45 220 15 gusting 25 6.6 0.4
2019-Dec-06 17:00 210 13 gusting 17 6.2 0.4
2019-Dec-06 16:50 210 13 gusting 17 6.4 0.3
2019-Dec-06 16:00 210 11 gusting 17 5.4 0.4
2019-Dec-06 15:50 220 13 gusting 17 5.5 0.4
2019-Dec-06 15:00 210 13 gusting 17 4.8 0.3
2019-Dec-06 14:50 200 13 gusting 17 5.0 0.3
2019-Dec-06 14:00 210 11 gusting 15 4.0 0.3
2019-Dec-06 13:50 200 9 gusting 13 4.1 0.2
2019-Dec-06 13:00 240 11 gusting 15 3.4 0.2
2019-Dec-06 12:50 230 11 gusting 15 3.4 0.3
2019-Dec-06 12:00 250 11 gusting 15 2.9 0.2
2019-Dec-06 11:50 240 11 gusting 17 3.1 0.2
2019-Dec-06 11:00 260 11 gusting 15 2.5 0.2
2019-Dec-06 10:50 260 11 gusting 15 2.6 0.2
2019-Dec-06 10:00 290 11 gusting 15 2.5 0.1